createdAt,value
2016-06-08T00:00:21.089Z,20.08
2016-06-08T00:01:21.124Z,20.02
2016-06-08T00:02:21.158Z,20.11
2016-06-08T00:03:21.191Z,20.06
2016-06-08T00:04:21.210Z,20.03
2016-06-08T00:05:21.228Z,20.01
2016-06-08T00:06:21.262Z,20.08
2016-06-08T00:07:21.280Z,20.02
2016-06-08T00:08:21.314Z,20.03
2016-06-08T00:09:21.333Z,19.99
2016-06-08T00:10:21.351Z,20.03
2016-06-08T00:11:21.385Z,20.06
2016-06-08T00:12:21.824Z,19.99
2016-06-08T00:13:21.437Z,20.01
2016-06-08T00:14:21.471Z,20.06
2016-06-08T00:15:21.333Z,20.02
2016-06-08T00:16:21.524Z,20.02
2016-06-08T00:17:21.541Z,19.98
2016-06-08T00:18:21.576Z,19.98
2016-06-08T00:19:21.593Z,19.96
2016-06-08T00:20:21.628Z,19.96
2016-06-08T00:21:21.646Z,19.96
2016-06-08T00:22:21.555Z,19.95
2016-06-08T00:23:21.698Z,19.95
2016-06-08T00:24:21.731Z,19.95
2016-06-08T00:25:21.751Z,19.96
2016-06-08T00:26:21.831Z,19.98
2016-06-08T00:27:22.131Z,19.95
2016-06-08T00:28:21.836Z,19.96
2016-06-08T00:29:21.855Z,19.94
2016-06-08T00:30:21.873Z,19.94
2016-06-08T00:31:21.908Z,19.92
2016-06-08T00:32:21.926Z,19.95
2016-06-08T00:33:22.006Z,19.95
2016-06-08T00:34:21.994Z,19.98
2016-06-08T00:35:22.011Z,19.95
2016-06-08T00:36:22.046Z,19.91
2016-06-08T00:37:22.064Z,19.96
2016-06-08T00:38:22.097Z,19.91
2016-06-08T00:39:22.117Z,20.03
2016-06-08T00:40:22.150Z,19.92
2016-06-08T00:41:22.294Z,19.92
2016-06-08T00:42:22.203Z,19.94
2016-06-08T00:43:22.221Z,19.98
2016-06-08T00:44:22.255Z,19.92
2016-06-08T00:45:22.273Z,19.95
2016-06-08T00:46:22.307Z,19.87
2016-06-08T00:47:22.326Z,19.87
2016-06-08T00:48:22.360Z,19.87
2016-06-08T00:49:22.377Z,19.91
2016-06-08T00:50:22.412Z,19.86
2016-06-08T00:51:22.445Z,19.92
2016-06-08T00:52:22.464Z,19.87
2016-06-08T00:53:22.482Z,19.87
2016-06-08T00:54:22.515Z,19.91
2016-06-08T00:55:22.379Z,19.86
2016-06-08T00:56:23.084Z,19.86
2016-06-08T00:57:22.290Z,19.87
2016-06-08T00:58:22.621Z,19.84
2016-06-08T00:59:22.639Z,19.86
2016-06-08T01:00:22.673Z,19.84
2016-06-08T01:01:22.691Z,19.86
2016-06-08T01:02:22.725Z,19.8
2016-06-08T01:03:22.744Z,19.86
2016-06-08T01:04:22.793Z,19.86
2016-06-08T01:05:22.811Z,19.78
2016-06-08T01:06:22.830Z,19.83
2016-06-08T01:07:22.847Z,19.8
2016-06-08T01:08:22.882Z,19.86
2016-06-08T01:09:22.900Z,19.84
2016-06-08T01:10:22.996Z,19.77
2016-06-08T01:11:22.656Z,19.83
2016-06-08T01:12:23.268Z,19.8
2016-06-08T01:13:23.005Z,19.81
2016-06-08T01:14:23.039Z,19.87
2016-06-08T01:15:23.072Z,19.83
2016-06-08T01:16:23.091Z,19.86
2016-06-08T01:17:23.124Z,19.8
2016-06-08T01:18:23.143Z,19.81
2016-06-08T01:19:23.177Z,19.81
2016-06-08T01:20:23.196Z,19.8
2016-06-08T01:21:23.213Z,19.87
2016-06-08T01:22:23.248Z,19.8
2016-06-08T01:23:23.282Z,19.78
2016-06-08T01:24:23.300Z,19.8
2016-06-08T01:25:23.334Z,19.8
2016-06-08T01:26:23.961Z,19.8
2016-06-08T01:27:23.230Z,19.84
2016-06-08T01:28:23.404Z,19.81
2016-06-08T01:29:23.423Z,19.77
2016-06-08T01:30:23.457Z,19.71
2016-06-08T01:31:23.490Z,19.81
2016-06-08T01:32:23.509Z,19.87
2016-06-08T01:33:23.542Z,19.78
2016-06-08T01:34:23.561Z,19.81
2016-06-08T01:35:23.595Z,19.88
2016-06-08T01:36:23.614Z,19.86
2016-06-08T01:37:23.631Z,19.81
2016-06-08T01:38:23.509Z,19.84
2016-06-08T01:39:23.543Z,19.78
2016-06-08T01:40:23.718Z,19.86
2016-06-08T01:41:24.127Z,19.78
2016-06-08T01:42:24.254Z,19.74
2016-06-08T01:43:23.805Z,19.81
2016-06-08T01:44:23.666Z,19.84
2016-06-08T01:45:23.857Z,19.77
2016-06-08T01:46:24.031Z,19.81
2016-06-08T01:47:23.908Z,19.83
2016-06-08T01:48:23.927Z,19.83
2016-06-08T01:49:23.945Z,19.83
2016-06-08T01:50:23.979Z,19.77
2016-06-08T01:51:24.013Z,19.78
2016-06-08T01:52:24.032Z,19.76
2016-06-08T01:53:24.065Z,19.87
2016-06-08T01:54:24.084Z,19.84
2016-06-08T01:55:24.101Z,19.84
2016-06-08T01:56:24.151Z,19.84
2016-06-08T01:57:24.217Z,19.8
2016-06-08T01:58:24.188Z,19.8
2016-06-08T01:59:24.066Z,19.86
2016-06-08T02:00:24.240Z,19.84
2016-06-08T02:01:24.275Z,19.88
2016-06-08T02:02:24.293Z,19.87
2016-06-08T02:03:24.311Z,19.76
2016-06-08T02:04:24.345Z,19.87
2016-06-08T02:05:24.378Z,19.84
2016-06-08T02:06:24.413Z,19.86
2016-06-08T02:07:24.416Z,19.83
2016-06-08T02:08:24.450Z,19.8
2016-06-08T02:09:24.467Z,19.77
2016-06-08T02:10:24.502Z,19.84
2016-06-08T02:11:24.519Z,19.81
2016-06-08T02:12:24.570Z,19.87
2016-06-08T02:13:24.588Z,19.87
2016-06-08T02:14:24.466Z,19.84
2016-06-08T02:15:24.641Z,19.8
2016-06-08T02:16:24.658Z,19.83
2016-06-08T02:17:24.677Z,19.84
2016-06-08T02:18:24.711Z,19.87
2016-06-08T02:19:24.744Z,19.8
2016-06-08T02:20:24.763Z,19.87
2016-06-08T02:21:24.796Z,19.86
2016-06-08T02:22:24.815Z,19.83
2016-06-08T02:23:24.849Z,19.88
2016-06-08T02:24:24.868Z,19.83
2016-06-08T02:25:24.885Z,19.86
2016-06-08T02:26:24.935Z,19.84
2016-06-08T02:27:24.953Z,19.86
2016-06-08T02:28:24.972Z,19.86
2016-06-08T02:29:25.021Z,19.87
2016-06-08T02:30:25.023Z,19.88
2016-06-08T02:31:25.059Z,19.92
2016-06-08T02:32:25.092Z,19.83
2016-06-08T02:33:25.095Z,19.88
2016-06-08T02:34:24.973Z,19.91
2016-06-08T02:35:25.147Z,19.87
2016-06-08T02:36:25.181Z,19.87
2016-06-08T02:37:25.059Z,19.87
2016-06-08T02:38:25.249Z,19.91
2016-06-08T02:39:25.252Z,19.91
2016-06-08T02:40:25.286Z,19.94
2016-06-08T02:41:25.319Z,19.87
2016-06-08T02:42:26.213Z,19.91
2016-06-08T02:43:25.355Z,19.88
2016-06-08T02:44:25.405Z,19.91
2016-06-08T02:45:25.409Z,19.94
2016-06-08T02:46:25.441Z,19.87
2016-06-08T02:47:25.477Z,19.88
2016-06-08T02:48:25.494Z,19.91
2016-06-08T02:49:25.419Z,19.88
2016-06-08T02:50:25.547Z,19.92
2016-06-08T02:51:25.424Z,19.88
2016-06-08T02:52:25.443Z,19.92
2016-06-08T02:53:25.633Z,19.83
2016-06-08T02:54:25.667Z,19.87
2016-06-08T02:55:25.685Z,19.91
2016-06-08T02:56:25.704Z,19.96
2016-06-08T02:57:26.346Z,19.96
2016-06-08T02:58:25.756Z,19.96
2016-06-08T02:59:25.789Z,19.88
2016-06-08T03:00:25.808Z,19.86
2016-06-08T03:01:25.827Z,19.88
2016-06-08T03:02:25.859Z,19.88
2016-06-08T03:03:25.879Z,19.98
2016-06-08T03:04:25.912Z,19.88
2016-06-08T03:05:25.947Z,19.91
2016-06-08T03:06:25.965Z,19.91
2016-06-08T03:07:25.983Z,19.92
2016-06-08T03:08:26.017Z,19.88
2016-06-08T03:09:26.051Z,19.98
2016-06-08T03:10:26.069Z,19.95
2016-06-08T03:11:26.103Z,19.91
2016-06-08T03:12:26.419Z,19.95
2016-06-08T03:13:26.155Z,19.87
2016-06-08T03:14:26.174Z,19.95
2016-06-08T03:15:26.207Z,19.95
2016-06-08T03:16:26.226Z,19.95
2016-06-08T03:17:26.261Z,19.94
2016-06-08T03:18:26.278Z,19.95
2016-06-08T03:19:26.156Z,19.95
2016-06-08T03:20:26.330Z,19.95
2016-06-08T03:21:26.365Z,19.99
2016-06-08T03:22:26.382Z,19.98
2016-06-08T03:23:26.416Z,19.94
2016-06-08T03:24:26.279Z,19.96
2016-06-08T03:25:26.454Z,19.96
2016-06-08T03:26:26.504Z,19.94
2016-06-08T03:27:27.162Z,19.96
2016-06-08T03:28:26.540Z,19.96
2016-06-08T03:29:26.557Z,19.92
2016-06-08T03:30:26.592Z,19.92
2016-06-08T03:31:26.625Z,19.91
2016-06-08T03:32:26.644Z,19.92
2016-06-08T03:33:26.679Z,19.95
2016-06-08T03:34:26.696Z,19.99
2016-06-08T03:35:26.731Z,19.98
2016-06-08T03:36:26.748Z,19.95
2016-06-08T03:37:26.767Z,19.98
2016-06-08T03:38:26.801Z,19.91
2016-06-08T03:39:26.834Z,19.94
2016-06-08T03:40:26.853Z,19.95
2016-06-08T03:41:26.887Z,20.02
2016-06-08T03:42:26.906Z,19.94
2016-06-08T03:43:26.939Z,19.95
2016-06-08T03:44:26.958Z,19.91
2016-06-08T03:45:26.992Z,19.96
2016-06-08T03:46:28.666Z,19.94
2016-06-08T03:47:27.043Z,19.98
2016-06-08T03:48:27.063Z,19.95
2016-06-08T03:49:27.096Z,19.95
2016-06-08T03:50:27.114Z,19.96
2016-06-08T03:51:27.148Z,20.05
2016-06-08T03:52:27.182Z,19.94
2016-06-08T03:53:27.201Z,20.06
2016-06-08T03:54:27.219Z,20.03
2016-06-08T03:55:27.252Z,20.03
2016-06-08T03:56:27.271Z,19.96
2016-06-08T03:57:27.539Z,19.88
2016-06-08T03:58:27.183Z,20.02
2016-06-08T03:59:27.358Z,20.05
2016-06-08T04:00:27.376Z,20.1
2016-06-08T04:01:27.409Z,20.02
2016-06-08T04:02:27.428Z,20.06
2016-06-08T04:03:27.462Z,20.05
2016-06-08T04:04:27.480Z,20.06
2016-06-08T04:05:27.514Z,20.08
2016-06-08T04:06:27.532Z,20.06
2016-06-08T04:07:27.567Z,20.05
2016-06-08T04:08:27.584Z,20.05
2016-06-08T04:09:27.619Z,20.03
2016-06-08T04:10:27.637Z,20.06
2016-06-08T04:11:27.670Z,20.03
2016-06-08T04:12:27.830Z,20.05
2016-06-08T04:13:27.722Z,20.08
2016-06-08T04:14:27.758Z,20.03
2016-06-08T04:15:27.776Z,20.01
2016-06-08T04:16:27.794Z,20.02
2016-06-08T04:17:27.827Z,20.17
2016-06-08T04:18:27.846Z,20.16
2016-06-08T04:19:27.880Z,20.06
2016-06-08T04:20:27.898Z,20.14
2016-06-08T04:21:27.979Z,20.06
2016-06-08T04:22:27.966Z,20.03
2016-06-08T04:23:27.985Z,20.13
2016-06-08T04:24:28.002Z,20.03
2016-06-08T04:25:28.037Z,20.18
2016-06-08T04:26:28.055Z,20.14
2016-06-08T04:27:27.932Z,20.17
2016-06-08T04:28:28.107Z,20.08
2016-06-08T04:29:28.156Z,20.05
2016-06-08T04:30:28.160Z,20.18
2016-06-08T04:31:28.194Z,20.16
2016-06-08T04:32:28.212Z,20.17
2016-06-08T04:33:28.246Z,20.17
2016-06-08T04:34:28.264Z,20.14
2016-06-08T04:35:28.298Z,20.11
2016-06-08T04:36:28.316Z,20.08
2016-06-08T04:37:28.350Z,20.24
2016-06-08T04:38:28.368Z,20.16
2016-06-08T04:39:28.403Z,20.14
2016-06-08T04:40:28.420Z,20.16
2016-06-08T04:41:28.455Z,20.08
2016-06-08T04:42:28.192Z,20.17
2016-06-08T04:43:28.381Z,20.14
2016-06-08T04:44:28.541Z,20.1
2016-06-08T04:45:28.558Z,20.18
2016-06-08T04:46:28.437Z,20.14
2016-06-08T04:47:28.612Z,20.11
2016-06-08T04:48:28.630Z,20.18
2016-06-08T04:49:28.663Z,20.17
2016-06-08T04:50:28.697Z,20.29
2016-06-08T04:51:28.716Z,20.24
2016-06-08T04:52:28.749Z,20.21
2016-06-08T04:53:28.769Z,20.31
2016-06-08T04:54:28.786Z,20.26
2016-06-08T04:55:28.836Z,20.18
2016-06-08T04:56:28.870Z,20.29
2016-06-08T04:57:30.107Z,20.31
2016-06-08T04:58:29.422Z,20.31
2016-06-08T04:59:28.924Z,20.33
2016-06-08T05:00:28.959Z,20.29
2016-06-08T05:01:28.976Z,20.29
2016-06-08T05:02:29.011Z,20.29
2016-06-08T05:03:29.030Z,20.31
2016-06-08T05:04:29.063Z,20.33
2016-06-08T05:05:29.098Z,20.31
2016-06-08T05:06:29.118Z,20.35
2016-06-08T05:07:29.147Z,20.31
2016-06-08T05:08:29.192Z,20.26
2016-06-08T05:09:29.220Z,20.29
2016-06-08T05:10:29.109Z,20.33
2016-06-08T05:11:29.291Z,20.33
2016-06-08T05:12:29.673Z,20.33
2016-06-08T05:13:29.819Z,20.33
2016-06-08T05:14:29.389Z,20.38
2016-06-08T05:15:29.457Z,20.38
2016-06-08T05:16:29.463Z,20.38
2016-06-08T05:17:29.311Z,20.43
2016-06-08T05:18:29.346Z,20.43
2016-06-08T05:19:29.538Z,20.48
2016-06-08T05:20:29.557Z,20.5
2016-06-08T05:21:29.577Z,20.52
2016-06-08T05:22:29.610Z,20.51
2016-06-08T05:23:29.630Z,20.54
2016-06-08T05:24:29.508Z,20.43
2016-06-08T05:25:29.698Z,20.47
2016-06-08T05:26:29.717Z,20.55
2016-06-08T05:27:29.626Z,20.55
2016-06-08T05:28:29.942Z,20.51
2016-06-08T05:29:29.804Z,20.55
2016-06-08T05:30:29.823Z,20.59
2016-06-08T05:31:29.857Z,20.54
2016-06-08T05:32:29.876Z,20.61
2016-06-08T05:33:29.926Z,20.59
2016-06-08T05:34:29.928Z,20.51
2016-06-08T05:35:29.962Z,20.69
2016-06-08T05:36:29.995Z,20.67
2016-06-08T05:37:30.015Z,20.66
2016-06-08T05:38:30.032Z,20.66
2016-06-08T05:39:30.066Z,20.7
2016-06-08T05:40:30.116Z,20.64
2016-06-08T05:41:30.134Z,20.69
2016-06-08T05:42:30.543Z,20.64
2016-06-08T05:43:30.717Z,20.73
2016-06-08T05:44:30.189Z,20.64
2016-06-08T05:45:30.223Z,20.73
2016-06-08T05:46:30.304Z,20.76
2016-06-08T05:47:30.119Z,20.72
2016-06-08T05:48:30.309Z,20.73
2016-06-08T05:49:30.328Z,20.74
2016-06-08T05:50:30.346Z,20.77
2016-06-08T05:51:30.395Z,20.82
2016-06-08T05:52:30.414Z,20.82
2016-06-08T05:53:30.275Z,20.76
2016-06-08T05:54:30.466Z,20.91
2016-06-08T05:55:30.515Z,20.89
2016-06-08T05:56:30.519Z,20.92
2016-06-08T05:57:30.552Z,20.92
2016-06-08T05:58:30.258Z,20.89
2016-06-08T05:59:30.588Z,20.82
2016-06-08T06:00:30.623Z,20.87
2016-06-08T06:01:30.641Z,20.88
2016-06-08T06:02:30.674Z,20.89
2016-06-08T06:03:30.709Z,20.89
2016-06-08T06:04:30.726Z,20.94
2016-06-08T06:05:30.777Z,20.99
2016-06-08T06:06:30.780Z,20.99
2016-06-08T06:07:30.813Z,20.92
2016-06-08T06:08:30.831Z,21.01
2016-06-08T06:09:30.865Z,21.04
2016-06-08T06:10:30.884Z,21.04
2016-06-08T06:11:30.917Z,20.97
2016-06-08T06:12:30.936Z,20.97
2016-06-08T06:13:30.970Z,21.01
2016-06-08T06:14:31.004Z,20.97
2016-06-08T06:15:31.023Z,21.06
2016-06-08T06:16:31.041Z,21.12
2016-06-08T06:17:31.075Z,21.07
2016-06-08T06:18:31.108Z,21.06
2016-06-08T06:19:31.127Z,21.13
2016-06-08T06:20:31.161Z,21.16
2016-06-08T06:21:31.194Z,21.17
2016-06-08T06:22:31.213Z,21.14
2016-06-08T06:23:30.497Z,21.21
2016-06-08T06:24:31.109Z,21.19
2016-06-08T06:25:31.299Z,21.21
2016-06-08T06:26:31.318Z,21.25
2016-06-08T06:27:31.352Z,21.19
2016-06-08T06:28:31.369Z,21.21
2016-06-08T06:29:31.247Z,21.32
2016-06-08T06:30:31.421Z,21.38
2016-06-08T06:31:31.456Z,21.32
2016-06-08T06:32:31.475Z,21.34
2016-06-08T06:33:31.508Z,21.32
2016-06-08T06:34:31.542Z,21.38
2016-06-08T06:35:31.561Z,21.37
2016-06-08T06:36:31.657Z,21.47
2016-06-08T06:37:31.488Z,21.42
2016-06-08T06:38:31.646Z,21.49
2016-06-08T06:39:31.665Z,21.47
2016-06-08T06:40:31.699Z,21.59
2016-06-08T06:41:31.717Z,21.54
2016-06-08T06:42:31.751Z,21.56
2016-06-08T06:43:32.160Z,21.53
2016-06-08T06:44:31.820Z,21.53
2016-06-08T06:45:31.853Z,21.69
2016-06-08T06:46:31.856Z,21.69
2016-06-08T06:47:31.890Z,21.74
2016-06-08T06:48:31.923Z,21.79
2016-06-08T06:49:31.942Z,21.77
2016-06-08T06:50:31.991Z,21.79
2016-06-08T06:51:32.010Z,21.8
2016-06-08T06:52:32.028Z,21.77
2016-06-08T06:53:32.047Z,21.94
2016-06-08T06:54:32.097Z,21.88
2016-06-08T06:55:32.114Z,21.91
2016-06-08T06:56:32.133Z,22.03
2016-06-08T06:57:32.166Z,22.1
2016-06-08T06:58:31.888Z,22.09
2016-06-08T06:59:32.219Z,22.09
2016-06-08T07:00:32.252Z,22.15
2016-06-08T07:01:32.271Z,22.21
2016-06-08T07:02:32.305Z,22.2
2016-06-08T07:03:32.324Z,22.28
2016-06-08T07:04:32.358Z,22.35
2016-06-08T07:05:32.390Z,22.42
2016-06-08T07:06:32.426Z,22.4
2016-06-08T07:07:32.444Z,22.43
2016-06-08T07:08:32.477Z,22.55
2016-06-08T07:09:32.496Z,22.64
2016-06-08T07:10:32.545Z,22.62
2016-06-08T07:11:32.407Z,22.75
2016-06-08T07:12:32.598Z,22.79
2016-06-08T07:13:32.615Z,22.88
2016-06-08T07:14:32.650Z,22.91
2016-06-08T07:15:32.667Z,23.09
2016-06-08T07:16:32.702Z,23.05
2016-06-08T07:17:32.721Z,23.16
2016-06-08T07:18:32.598Z,23.22
2016-06-08T07:19:32.780Z,23.28
2016-06-08T07:20:32.810Z,23.36
2016-06-08T07:21:32.846Z,23.51
2016-06-08T07:22:32.867Z,23.47
2016-06-08T07:23:32.893Z,23.58
2016-06-08T07:24:32.919Z,23.65
2016-06-08T07:25:32.952Z,23.72
2016-06-08T07:26:32.972Z,23.75
2016-06-08T07:27:33.037Z,23.76
2016-06-08T07:28:33.337Z,23.88
2016-06-08T07:29:33.073Z,23.84
2016-06-08T07:30:33.092Z,23.95
2016-06-08T07:31:33.125Z,23.9
2016-06-08T07:32:33.160Z,23.85
2016-06-08T07:33:33.038Z,23.94
2016-06-08T07:34:33.212Z,23.98
2016-06-08T07:35:33.236Z,23.95
2016-06-08T07:36:33.270Z,24.03
2016-06-08T07:37:33.289Z,24.05
2016-06-08T07:38:33.339Z,24.08
2016-06-08T07:39:33.356Z,24.08
2016-06-08T07:40:33.391Z,24.15
2016-06-08T07:41:33.289Z,24.09
2016-06-08T07:42:33.291Z,24.1
2016-06-08T07:43:33.341Z,24.06
2016-06-08T07:44:33.531Z,24.21
2016-06-08T07:45:33.533Z,24.1
2016-06-08T07:46:34.255Z,24.09
2016-06-08T07:47:33.429Z,24.09
2016-06-08T07:48:33.463Z,24.08
2016-06-08T07:49:33.638Z,24.09
2016-06-08T07:50:33.672Z,24.13
2016-06-08T07:51:33.701Z,24.09
2016-06-08T07:52:33.579Z,24.05
2016-06-08T07:53:33.769Z,24.1
2016-06-08T07:54:33.803Z,24.08
2016-06-08T07:55:33.806Z,24.12
2016-06-08T07:56:33.842Z,24.06
2016-06-08T07:57:33.906Z,24.08
2016-06-08T07:58:34.112Z,24.08
2016-06-08T07:59:33.928Z,24.06
2016-06-08T08:00:33.961Z,24.13
2016-06-08T08:01:34.027Z,24.06
2016-06-08T08:02:33.858Z,24.12
2016-06-08T08:03:34.048Z,24.13
2016-06-08T08:04:34.081Z,24.12
2016-06-08T08:05:34.116Z,24.1
2016-06-08T08:06:34.134Z,24.16
2016-06-08T08:07:34.169Z,24.08
2016-06-08T08:08:34.187Z,24.18
2016-06-08T08:09:34.064Z,24.22
2016-06-08T08:10:34.239Z,24.09
2016-06-08T08:11:34.275Z,24.16
2016-06-08T08:12:34.310Z,24.21
2016-06-08T08:13:35.250Z,24.28
2016-06-08T08:14:34.072Z,24.3
2016-06-08T08:15:34.388Z,24.25
2016-06-08T08:16:34.421Z,24.24
2016-06-08T08:17:34.455Z,24.24
2016-06-08T08:18:34.474Z,24.24
2016-06-08T08:19:34.352Z,24.31
2016-06-08T08:20:34.401Z,24.28
2016-06-08T08:21:35.248Z,24.39
2016-06-08T08:22:34.593Z,24.4
2016-06-08T08:23:34.644Z,24.35
2016-06-08T08:24:34.663Z,24.42
2016-06-08T08:25:34.679Z,24.37
2016-06-08T08:26:34.699Z,24.43
2016-06-08T08:27:34.576Z,24.45
2016-06-08T08:28:35.985Z,24.49
2016-06-08T08:29:34.973Z,24.5
2016-06-08T08:30:34.818Z,24.45
2016-06-08T08:31:34.853Z,24.6
2016-06-08T08:32:34.886Z,24.55
2016-06-08T08:33:34.920Z,24.61
2016-06-08T08:34:35.361Z,24.67
2016-06-08T08:35:35.003Z,24.73
2016-06-08T08:36:34.850Z,24.76
2016-06-08T08:37:35.041Z,24.78
2016-06-08T08:38:35.059Z,24.78
2016-06-08T08:39:35.109Z,24.85
2016-06-08T08:40:35.111Z,24.84
2016-06-08T08:41:35.145Z,24.83
2016-06-08T08:42:35.195Z,24.84
2016-06-08T08:43:35.464Z,24.96
2016-06-08T08:44:35.278Z,24.9
2016-06-08T08:45:35.250Z,24.95
2016-06-08T08:46:35.330Z,24.99
2016-06-08T08:47:35.318Z,24.99
2016-06-08T08:48:35.351Z,25.08
2016-06-08T08:49:35.369Z,25.05
2016-06-08T08:50:35.404Z,25.08
2016-06-08T08:51:35.437Z,25.1
2016-06-08T08:52:35.456Z,25.18
2016-06-08T08:53:35.490Z,25.13
2016-06-08T08:54:35.523Z,25.1
2016-06-08T08:55:35.542Z,25.1
2016-06-08T08:56:35.576Z,25.23
2016-06-08T08:57:35.595Z,25.28
2016-06-08T08:58:36.113Z,25.27
2016-06-08T08:59:35.679Z,25.25
2016-06-08T09:00:35.539Z,25.23
2016-06-08T09:01:35.731Z,25.21
2016-06-08T09:02:35.765Z,25.25
2016-06-08T09:03:35.782Z,25.36
2016-06-08T09:04:35.817Z,25.32
2016-06-08T09:05:35.834Z,25.38
2016-06-08T09:06:35.712Z,25.38
2016-06-08T09:07:35.903Z,25.38
2016-06-08T09:08:35.920Z,25.43
2016-06-08T09:09:35.955Z,25.5
2016-06-08T09:10:35.989Z,25.46
2016-06-08T09:11:36.335Z,25.54
2016-06-08T09:12:35.885Z,25.55
2016-06-08T09:13:35.934Z,25.54
2016-06-08T09:14:36.109Z,25.62
2016-06-08T09:15:36.143Z,25.64
2016-06-08T09:16:36.161Z,25.62
2016-06-08T09:17:36.227Z,25.72
2016-06-08T09:18:36.588Z,25.73
2016-06-08T09:19:36.247Z,25.79
2016-06-08T09:20:36.282Z,25.79
2016-06-08T09:21:36.331Z,25.91
2016-06-08T09:22:36.193Z,25.87
2016-06-08T09:23:36.383Z,25.87
2016-06-08T09:24:36.245Z,25.83
2016-06-08T09:25:36.435Z,25.97
2016-06-08T09:26:36.454Z,25.91
2016-06-08T09:27:36.488Z,25.97
2016-06-08T09:28:36.662Z,26.01
2016-06-08T09:29:37.523Z,25.92
2016-06-08T09:30:36.574Z,26.02
2016-06-08T09:31:36.607Z,26.07
2016-06-08T09:32:36.626Z,26.1
2016-06-08T09:33:36.675Z,26.09
2016-06-08T09:34:36.694Z,26.09
2016-06-08T09:35:36.728Z,26.09
2016-06-08T09:36:36.745Z,26.13
2016-06-08T09:37:36.780Z,26.18
2016-06-08T09:38:36.814Z,26.18
2016-06-08T09:39:36.848Z,26.26
2016-06-08T09:40:36.867Z,26.23
2016-06-08T09:41:36.900Z,26.21
2016-06-08T09:42:36.934Z,26.23
2016-06-08T09:43:36.969Z,26.2
2016-06-08T09:44:37.159Z,26.26
2016-06-08T09:45:37.036Z,26.23
2016-06-08T09:46:39.461Z,26.26
2016-06-08T09:47:37.088Z,26.33
2016-06-08T09:48:37.107Z,26.3
2016-06-08T09:49:37.141Z,26.23
2016-06-08T09:50:37.174Z,26.26
2016-06-08T09:51:37.224Z,26.28
2016-06-08T09:52:37.226Z,26.33
2016-06-08T09:53:37.261Z,26.3
2016-06-08T09:54:37.279Z,26.35
2016-06-08T09:55:37.313Z,26.33
2016-06-08T09:56:37.190Z,26.32
2016-06-08T09:57:37.381Z,26.29
2016-06-08T09:58:37.430Z,26.3
2016-06-08T09:59:37.526Z,26.29
2016-06-08T10:00:37.467Z,26.32
2016-06-08T10:01:37.501Z,26.33
2016-06-08T10:02:37.535Z,26.26
2016-06-08T10:03:37.553Z,26.21
2016-06-08T10:04:37.587Z,26.23
2016-06-08T10:05:37.621Z,26.13
2016-06-08T10:06:37.656Z,26.12
2016-06-08T10:07:37.534Z,26.1
2016-06-08T10:08:37.706Z,26.09
2016-06-08T10:09:37.742Z,26.12
2016-06-08T10:10:37.759Z,26.09
2016-06-08T10:11:37.809Z,26.06
2016-06-08T10:12:37.828Z,26.07
2016-06-08T10:13:37.939Z,26.09
2016-06-08T10:14:38.520Z,25.99
2016-06-08T10:15:37.914Z,26.1
2016-06-08T10:16:37.948Z,26.06
2016-06-08T10:17:37.981Z,26.05
2016-06-08T10:18:37.843Z,25.98
2016-06-08T10:19:38.049Z,26.02
2016-06-08T10:20:38.068Z,25.95
2016-06-08T10:21:38.086Z,25.97
2016-06-08T10:22:38.119Z,25.94
2016-06-08T10:23:38.154Z,25.92
2016-06-08T10:24:38.187Z,25.9
2016-06-08T10:25:38.206Z,25.83
2016-06-08T10:26:38.240Z,25.88
2016-06-08T10:27:38.274Z,25.87
2016-06-08T10:28:39.136Z,25.79
2016-06-08T10:29:38.467Z,25.77
2016-06-08T10:30:38.376Z,25.75
2016-06-08T10:31:38.393Z,25.75
2016-06-08T10:32:38.429Z,25.76
2016-06-08T10:33:38.290Z,25.62
2016-06-08T10:34:38.168Z,25.7
2016-06-08T10:35:38.514Z,25.62
2016-06-08T10:36:38.392Z,25.61
2016-06-08T10:37:38.567Z,25.64
2016-06-08T10:38:38.601Z,25.58
2016-06-08T10:39:38.634Z,25.52
2016-06-08T10:40:38.497Z,25.62
2016-06-08T10:41:38.687Z,25.54
2016-06-08T10:42:38.720Z,25.64
2016-06-08T10:43:38.755Z,25.52
2016-06-08T10:44:38.914Z,25.52
2016-06-08T10:45:38.806Z,25.54
2016-06-08T10:46:38.841Z,25.45
2016-06-08T10:47:38.858Z,25.51
2016-06-08T10:48:38.893Z,25.47
2016-06-08T10:49:38.958Z,25.43
2016-06-08T10:50:39.024Z,25.45
2016-06-08T10:51:39.010Z,25.42
2016-06-08T10:52:39.982Z,25.39
2016-06-08T10:53:39.094Z,25.43
2016-06-08T10:54:39.081Z,25.42
2016-06-08T10:55:39.099Z,25.35
2016-06-08T10:56:39.132Z,25.33
2016-06-08T10:57:39.167Z,25.32
2016-06-08T10:58:39.216Z,25.33
2016-06-08T10:59:39.907Z,25.36
2016-06-08T11:00:39.254Z,25.35
2016-06-08T11:01:39.304Z,25.33
2016-06-08T11:02:39.165Z,25.32
2016-06-08T11:03:39.355Z,25.39
2016-06-08T11:04:39.373Z,25.35
2016-06-08T11:05:39.407Z,25.32
2016-06-08T11:06:39.285Z,25.27
2016-06-08T11:07:39.476Z,25.23
2016-06-08T11:08:39.493Z,25.18
2016-06-08T11:09:39.543Z,25.13
2016-06-08T11:10:39.545Z,25.14
2016-06-08T11:11:39.595Z,25.14
2016-06-08T11:12:39.614Z,25.17
2016-06-08T11:13:39.491Z,25.17
2016-06-08T11:14:39.713Z,25.21
2016-06-08T11:15:39.559Z,25.14
2016-06-08T11:16:39.733Z,25.14
2016-06-08T11:17:39.767Z,25.13
2016-06-08T11:18:39.786Z,25.06
2016-06-08T11:19:39.819Z,25.15
2016-06-08T11:20:39.698Z,25.14
2016-06-08T11:21:39.889Z,25.15
2016-06-08T11:22:39.905Z,25.08
2016-06-08T11:23:39.941Z,25.05
2016-06-08T11:24:39.958Z,25.17
2016-06-08T11:25:39.993Z,25.1
2016-06-08T11:26:39.871Z,25.02
2016-06-08T11:27:40.060Z,25.03
2016-06-08T11:28:40.094Z,25.1
2016-06-08T11:29:40.722Z,25.02
2016-06-08T11:30:40.146Z,25.05
2016-06-08T11:31:40.165Z,25
2016-06-08T11:32:40.199Z,25.09
2016-06-08T11:33:40.232Z,25.03
2016-06-08T11:34:40.251Z,25.06
2016-06-08T11:35:40.285Z,25.13
2016-06-08T11:36:40.318Z,25.1
2016-06-08T11:37:40.353Z,25.1
2016-06-08T11:38:40.370Z,25.1
2016-06-08T11:39:40.405Z,25.17
2016-06-08T11:40:40.440Z,25.2
2016-06-08T11:41:40.473Z,25.17
2016-06-08T11:42:40.492Z,25.13
2016-06-08T11:43:40.541Z,25.23
2016-06-08T11:44:40.762Z,25.21
2016-06-08T11:45:40.593Z,25.21
2016-06-08T11:46:40.612Z,25.24
2016-06-08T11:47:40.661Z,25.2
2016-06-08T11:48:40.664Z,25.25
2016-06-08T11:49:40.728Z,25.27
2016-06-08T11:50:41.419Z,25.33
2016-06-08T11:51:40.766Z,25.32
2016-06-08T11:52:40.799Z,25.38
2016-06-08T11:53:40.818Z,25.32
2016-06-08T11:54:40.852Z,25.36
2016-06-08T11:55:40.901Z,25.4
2016-06-08T11:56:40.920Z,25.3
2016-06-08T11:57:41.157Z,25.43
2016-06-08T11:58:41.565Z,25.54
2016-06-08T11:59:40.880Z,25.45
2016-06-08T12:00:41.024Z,25.51
2016-06-08T12:01:41.057Z,25.47
2016-06-08T12:02:41.093Z,25.46
2016-06-08T12:03:40.970Z,25.47
2016-06-08T12:04:41.143Z,25.54
2016-06-08T12:05:41.179Z,25.57
2016-06-08T12:06:41.228Z,25.61
2016-06-08T12:07:41.262Z,25.69
2016-06-08T12:08:41.265Z,25.67
2016-06-08T12:09:41.298Z,25.73
2016-06-08T12:10:41.176Z,25.8
2016-06-08T12:11:41.195Z,25.82
2016-06-08T12:12:41.900Z,25.83
2016-06-08T12:13:41.418Z,25.8
2016-06-08T12:14:41.312Z,25.91
2016-06-08T12:15:41.470Z,25.82
2016-06-08T12:16:41.348Z,25.87
2016-06-08T12:17:41.539Z,25.91
2016-06-08T12:18:41.572Z,25.94
2016-06-08T12:19:41.591Z,25.95
2016-06-08T12:20:41.468Z,25.88
2016-06-08T12:21:41.643Z,25.98
2016-06-08T12:22:41.677Z,26.05
2016-06-08T12:23:41.711Z,26.06
2016-06-08T12:24:41.729Z,26.06
2016-06-08T12:25:41.779Z,26.07
2016-06-08T12:26:41.641Z,26.1
2016-06-08T12:27:41.675Z,25.94
2016-06-08T12:28:41.866Z,25.97
2016-06-08T12:29:41.899Z,25.9
2016-06-08T12:30:41.901Z,25.94
2016-06-08T12:31:41.952Z,25.92
2016-06-08T12:32:41.969Z,25.88
2016-06-08T12:33:42.004Z,25.88
2016-06-08T12:34:42.037Z,26.01
2016-06-08T12:35:42.056Z,25.83
2016-06-08T12:36:42.090Z,25.9
2016-06-08T12:37:42.154Z,25.88
2016-06-08T12:38:42.142Z,25.97
2016-06-08T12:39:42.176Z,25.94
2016-06-08T12:40:42.194Z,25.97
2016-06-08T12:41:42.228Z,25.9
2016-06-08T12:42:42.262Z,25.91
2016-06-08T12:43:42.281Z,26.09
2016-06-08T12:44:42.501Z,25.95
2016-06-08T12:45:42.348Z,25.95
2016-06-08T12:46:42.382Z,25.97
2016-06-08T12:47:42.400Z,25.92
2016-06-08T12:48:42.434Z,25.98
2016-06-08T12:49:42.469Z,25.9
2016-06-08T12:50:42.486Z,25.94
2016-06-08T12:51:42.520Z,25.92
2016-06-08T12:52:42.539Z,25.97
2016-06-08T12:53:42.572Z,25.94
2016-06-08T12:54:42.591Z,25.95